Time;durP1;ratioP1;P1;durP2;ratioP2;P2;SDS_P1;SDS_P2;PMS_P1;PMS_P2;Temp;Humidity;BMP_temperature;BMP_pressure;BME280_temperature;BME280_humidity;BME280_pressure;Samples;Min_cycle;Max_cycle;Signal;HPM_P1;HPM_P2
2023/12/11 00:02:07;;;;;;;27.92;5.18;;;9.10;99.90;;;;;;4989174;28;20054;-65
2023/12/11 00:04:33;;;;;;;23.00;5.13;;;9.30;99.90;;;;;;4989273;28;20050;-65
2023/12/11 00:06:59;;;;;;;22.65;4.70;;;9.30;99.90;;;;;;4989340;28;20060;-64
2023/12/11 00:09:26;;;;;;;25.13;5.28;;;9.30;99.90;;;;;;4989065;28;20108;-65
2023/12/11 00:11:52;;;;;;;19.95;4.28;;;9.00;99.90;;;;;;4989393;28;20046;-64
2023/12/11 00:14:19;;;;;;;31.08;7.18;;;9.30;99.90;;;;;;4989264;28;20157;-64
2023/12/11 00:16:46;;;;;;;23.35;4.88;;;9.10;99.90;;;;;;4989502;28;20080;-65
2023/12/11 00:19:13;;;;;;;27.77;4.05;;;9.00;99.90;;;;;;4988404;28;20046;-64
2023/12/11 00:21:40;;;;;;;25.50;4.72;;;9.30;99.90;;;;;;4972488;28;20065;-64
2023/12/11 00:24:06;;;;;;;22.60;4.63;;;9.00;99.90;;;;;;4988873;28;20054;-64
2023/12/11 00:26:32;;;;;;;22.50;4.32;;;9.10;99.90;;;;;;4973115;28;20057;-64
2023/12/11 00:28:59;;;;;;;23.13;4.18;;;9.40;99.90;;;;;;4988685;28;20084;-64
2023/12/11 00:31:25;;;;;;;27.65;4.43;;;9.30;99.90;;;;;;4988823;28;20062;-64
2023/12/11 00:33:51;;;;;;;26.67;4.60;;;9.10;99.90;;;;;;4988802;28;20057;-65
2023/12/11 00:36:18;;;;;;;15.32;3.53;;;9.20;99.90;;;;;;4988776;28;20057;-64
2023/12/11 00:38:44;;;;;;;18.20;3.97;;;9.20;99.90;;;;;;4988623;28;20103;-65
2023/12/11 00:41:10;;;;;;;20.60;5.15;;;9.00;99.90;;;;;;4989071;28;20065;-65
2023/12/11 00:43:37;;;;;;;26.95;4.10;;;9.30;99.90;;;;;;4988687;28;20057;-64
2023/12/11 00:46:03;;;;;;;18.70;4.20;;;8.90;99.90;;;;;;4988611;28;20065;-64
2023/12/11 00:48:29;;;;;;;21.55;4.00;;;9.00;99.90;;;;;;4988251;28;20129;-64
2023/12/11 00:50:56;;;;;;;16.00;3.30;;;8.90;99.90;;;;;;4988385;28;20538;-64
2023/12/11 00:53:22;;;;;;;20.90;4.35;;;8.80;99.90;;;;;;4988938;28;20073;-64
2023/12/11 00:55:48;;;;;;;15.40;3.30;;;8.80;99.90;;;;;;4989046;28;20042;-64
2023/12/11 00:58:15;;;;;;;26.95;4.60;;;8.90;99.90;;;;;;4988371;28;20058;-64
2023/12/11 01:00:41;;;;;;;21.75;4.45;;;9.00;99.90;;;;;;4988464;28;20062;-64
2023/12/11 01:03:07;;;;;;;23.55;4.07;;;9.00;99.90;;;;;;4988419;28;20077;-64
2023/12/11 01:05:33;;;;;;;25.80;4.50;;;8.70;99.90;;;;;;4988645;28;20381;-64
2023/12/11 01:08:00;;;;;;;17.90;4.03;;;8.90;99.90;;;;;;4988173;28;20061;-64
2023/12/11 01:10:26;;;;;;;22.15;4.38;;;8.80;99.90;;;;;;4988078;28;20042;-64
2023/12/11 01:12:54;;;;;;;23.23;3.75;;;8.60;99.90;;;;;;4987740;28;20343;-64
2023/12/11 01:15:20;;;;;;;23.38;3.30;;;8.90;99.90;;;;;;4988406;28;20050;-64
2023/12/11 01:17:46;;;;;;;24.15;4.07;;;8.70;99.90;;;;;;4988211;28;20065;-64
2023/12/11 01:20:13;;;;;;;23.13;4.85;;;8.90;99.90;;;;;;4988388;28;20058;-64
2023/12/11 01:22:39;;;;;;;19.48;3.75;;;8.90;99.90;;;;;;4987583;28;20050;-64
2023/12/11 01:25:06;;;;;;;21.23;4.60;;;8.90;99.90;;;;;;4972310;28;20367;-64
2023/12/11 01:27:33;;;;;;;19.52;3.75;;;8.70;99.90;;;;;;4987972;28;20050;-64
2023/12/11 01:29:59;;;;;;;22.52;4.15;;;9.00;99.90;;;;;;4987143;28;20049;-64
2023/12/11 01:32:25;;;;;;;25.48;5.20;;;8.90;99.90;;;;;;4987895;28;20482;-64
2023/12/11 01:34:52;;;;;;;20.10;4.60;;;8.90;99.90;;;;;;4987874;28;20053;-64
2023/12/11 01:37:19;;;;;;;31.38;5.32;;;9.00;99.90;;;;;;4987811;28;20046;-64
2023/12/11 01:39:45;;;;;;;26.58;5.28;;;8.80;99.90;;;;;;4988124;28;20508;-64
2023/12/11 01:42:11;;;;;;;24.60;4.95;;;9.00;99.90;;;;;;4987803;28;20046;-64
2023/12/11 01:44:38;;;;;;;21.63;4.13;;;9.00;99.90;;;;;;4987658;28;20054;-64
2023/12/11 01:47:05;;;;;;;22.40;4.47;;;8.80;99.90;;;;;;4987411;28;20058;-64
2023/12/11 01:49:32;;;;;;;31.35;6.32;;;8.90;99.90;;;;;;4987555;28;20053;-64
2023/12/11 01:51:59;;;;;;;26.45;5.10;;;9.10;99.90;;;;;;4987526;28;20050;-64
2023/12/11 01:54:25;;;;;;;25.20;4.95;;;9.10;99.90;;;;;;4987880;28;20058;-65
2023/12/11 01:56:52;;;;;;;30.05;4.97;;;8.90;99.90;;;;;;4987792;28;20378;-64
2023/12/11 01:59:18;;;;;;;28.77;5.38;;;9.10;99.90;;;;;;4987535;28;20046;-64
2023/12/11 02:01:47;;;;;;;29.48;5.80;;;9.20;99.90;;;;;;4987918;28;20382;-64
2023/12/11 02:04:13;;;;;;;25.83;4.05;;;9.00;99.90;;;;;;4987702;28;20050;-64
2023/12/11 02:06:39;;;;;;;27.17;5.30;;;9.00;99.90;;;;;;4988012;28;20064;-64
2023/12/11 02:09:06;;;;;;;26.38;5.15;;;8.90;99.90;;;;;;4987159;28;20061;-64
2023/12/11 02:11:32;;;;;;;33.92;5.03;;;9.30;99.90;;;;;;4987461;28;20050;-64
2023/12/11 02:13:58;;;;;;;27.80;5.63;;;9.30;99.90;;;;;;4971625;28;20046;-64
2023/12/11 02:16:25;;;;;;;24.55;6.43;;;9.20;99.90;;;;;;4987515;28;20050;-64
2023/12/11 02:18:51;;;;;;;26.33;5.07;;;9.30;99.90;;;;;;4987110;28;20057;-64
2023/12/11 02:21:18;;;;;;;31.35;5.30;;;9.30;99.90;;;;;;4987059;28;20058;-65
2023/12/11 02:24:03;;;;;;;30.90;5.70;;;9.10;99.90;;;;;;4987445;28;20049;-64
2023/12/11 02:26:29;;;;;;;24.90;5.00;;;9.10;99.90;;;;;;4987577;28;20054;-64
2023/12/11 02:28:56;;;;;;;41.33;6.30;;;9.50;99.90;;;;;;4988209;28;20050;-65
2023/12/11 02:31:22;;;;;;;28.17;4.40;;;9.20;99.90;;;;;;4987097;28;20050;-64
2023/12/11 02:33:48;;;;;;;30.20;5.60;;;9.50;99.90;;;;;;4987179;28;20377;-64
2023/12/11 02:36:15;;;;;;;30.33;5.80;;;9.60;99.90;;;;;;4987343;28;20450;-65
2023/12/11 02:38:41;;;;;;;33.92;6.15;;;9.30;99.90;;;;;;4987146;28;20054;-64
2023/12/11 02:41:07;;;;;;;31.15;6.00;;;9.50;99.90;;;;;;4970510;28;20077;-64
2023/12/11 02:43:34;;;;;;;25.80;5.00;;;9.30;99.90;;;;;;4987145;28;20046;-64
2023/12/11 02:46:02;;;;;;;30.23;5.82;;;9.50;99.90;;;;;;4986882;28;20066;-65
2023/12/11 02:48:29;;;;;;;32.63;6.15;;;9.30;99.90;;;;;;4986750;28;20042;-65
2023/12/11 02:50:55;;;;;;;27.27;4.70;;;9.50;99.90;;;;;;4986491;28;20057;-64
2023/12/11 02:53:22;;;;;;;28.58;5.45;;;9.50;99.90;;;;;;4987189;28;20347;-64
2023/12/11 02:55:48;;;;;;;31.45;5.20;;;9.60;99.90;;;;;;4987052;28;20072;-64
2023/12/11 02:58:14;;;;;;;25.80;4.93;;;9.50;99.90;;;;;;4986691;28;20051;-64
2023/12/11 03:00:41;;;;;;;26.63;5.30;;;9.60;99.90;;;;;;4986800;28;20525;-65
2023/12/11 03:03:08;;;;;;;32.75;5.78;;;9.40;99.90;;;;;;4986807;28;20058;-64
2023/12/11 03:05:35;;;;;;;25.60;4.95;;;9.60;99.90;;;;;;4986830;28;20054;-64
2023/12/11 03:08:05;;;;;;;31.17;5.55;;;9.30;99.90;;;;;;4986602;28;20057;-64
2023/12/11 03:10:32;;;;;;;32.25;5.00;;;9.20;99.90;;;;;;4986143;28;20054;-64
2023/12/11 03:12:59;;;;;;;31.38;5.65;;;9.50;99.90;;;;;;4986830;28;20442;-64
2023/12/11 03:15:25;;;;;;;31.75;5.20;;;9.50;99.90;;;;;;4986630;28;20045;-64
2023/12/11 03:17:51;;;;;;;30.52;5.53;;;9.40;99.90;;;;;;4986353;28;20061;-64
2023/12/11 03:20:18;;;;;;;32.80;7.05;;;9.30;99.90;;;;;;4986481;28;20137;-64
2023/12/11 03:22:44;;;;;;;29.48;5.32;;;9.30;99.90;;;;;;4986104;28;20073;-64
2023/12/11 03:25:10;;;;;;;19.35;4.28;;;9.40;99.90;;;;;;4987113;28;20057;-64
2023/12/11 03:27:37;;;;;;;26.05;6.05;;;9.40;99.90;;;;;;4986312;28;20525;-64
2023/12/11 03:30:04;;;;;;;23.58;5.10;;;9.80;99.90;;;;;;4986430;28;20046;-64
2023/12/11 03:32:30;;;;;;;29.38;5.25;;;9.80;99.90;;;;;;4969978;28;20054;-64
2023/12/11 03:34:56;;;;;;;30.50;5.90;;;9.50;99.90;;;;;;4986501;28;20050;-65
2023/12/11 03:37:23;;;;;;;25.58;4.78;;;9.60;99.90;;;;;;4970085;28;20050;-65
2023/12/11 03:39:50;;;;;;;29.40;5.25;;;9.40;99.90;;;;;;4986330;28;20651;-65
2023/12/11 03:42:16;;;;;;;26.00;4.40;;;9.50;99.90;;;;;;4986583;28;20054;-64
2023/12/11 03:44:42;;;;;;;21.95;4.35;;;9.70;99.90;;;;;;4986874;28;20470;-65
2023/12/11 03:47:09;;;;;;;19.85;4.97;;;9.40;99.90;;;;;;4986092;28;20054;-65
2023/12/11 03:49:35;;;;;;;27.65;4.55;;;9.30;99.90;;;;;;4969762;28;20046;-65
2023/12/11 03:52:02;;;;;;;20.13;4.05;;;9.50;99.90;;;;;;4985880;28;20050;-64
2023/12/11 03:54:28;;;;;;;21.58;4.40;;;9.30;99.90;;;;;;4988958;28;20046;-64
2023/12/11 03:56:55;;;;;;;21.20;5.05;;;9.60;99.90;;;;;;4990597;28;20046;-65
2023/12/11 03:59:22;;;;;;;28.88;4.68;;;9.30;99.90;;;;;;4989255;28;20517;-64
2023/12/11 04:01:48;;;;;;;21.23;4.15;;;9.60;99.90;;;;;;4989134;28;20446;-65
2023/12/11 04:04:17;;;;;;;28.73;5.80;;;9.30;99.90;;;;;;4973873;28;20069;-64
2023/12/11 04:06:43;;;;;;;22.52;4.75;;;9.30;99.90;;;;;;4989455;28;20530;-65
2023/12/11 04:09:10;;;;;;;24.92;4.78;;;9.40;99.90;;;;;;4989066;28;20054;-64
2023/12/11 04:11:36;;;;;;;25.50;4.90;;;9.60;99.90;;;;;;4988853;28;20058;-65
2023/12/11 04:14:02;;;;;;;23.75;4.18;;;9.40;99.90;;;;;;4989543;28;20065;-64
2023/12/11 04:16:29;;;;;;;25.08;3.92;;;9.60;99.90;;;;;;4989402;28;20057;-64
2023/12/11 04:18:55;;;;;;;25.65;4.63;;;9.40;99.90;;;;;;4989315;28;20046;-65
2023/12/11 04:21:22;;;;;;;28.73;4.57;;;9.70;99.90;;;;;;4988559;28;20471;-65
2023/12/11 04:23:48;;;;;;;30.75;4.72;;;9.60;99.90;;;;;;4989328;28;20059;-65
2023/12/11 04:26:14;;;;;;;26.10;4.30;;;9.50;99.90;;;;;;4989345;28;20059;-65
2023/12/11 04:28:41;;;;;;;30.95;4.97;;;9.40;99.90;;;;;;4988891;28;20039;-65
2023/12/11 04:31:07;;;;;;;27.33;4.47;;;9.30;99.90;;;;;;4988773;28;20054;-65
2023/12/11 04:33:37;;;;;;;21.35;3.67;;;9.60;99.90;;;;;;4973100;28;20052;-65
2023/12/11 04:36:08;;;;;;;21.35;4.32;;;9.50;99.90;;;;;;4988923;28;20046;-65
2023/12/11 04:38:34;;;;;;;30.98;4.85;;;9.20;99.90;;;;;;4989083;28;20054;-64
2023/12/11 04:41:01;;;;;;;22.35;3.95;;;9.40;99.90;;;;;;4988602;28;20137;-65
2023/12/11 04:43:27;;;;;;;27.65;5.32;;;9.50;99.90;;;;;;4988840;28;20061;-65
2023/12/11 04:45:54;;;;;;;23.15;4.22;;;9.20;99.90;;;;;;4988826;28;20436;-65
2023/12/11 04:48:20;;;;;;;28.48;4.38;;;9.40;99.90;;;;;;4988660;28;20046;-65
2023/12/11 04:50:46;;;;;;;29.38;5.68;;;9.10;99.90;;;;;;4989327;28;20054;-64
2023/12/11 04:53:12;;;;;;;27.73;4.50;;;9.30;99.90;;;;;;4988798;28;20059;-65
2023/12/11 04:55:39;;;;;;;22.65;4.13;;;9.20;99.90;;;;;;4988792;28;20057;-65
2023/12/11 04:58:05;;;;;;;27.40;4.80;;;9.10;99.90;;;;;;4988707;28;20177;-64
2023/12/11 05:00:31;;;;;;;27.58;4.88;;;9.40;99.90;;;;;;4988035;28;20054;-65
2023/12/11 05:02:58;;;;;;;20.70;4.10;;;9.30;99.90;;;;;;4988376;28;20455;-65
2023/12/11 05:05:24;;;;;;;29.00;4.93;;;9.20;99.90;;;;;;4988451;28;20058;-65
2023/12/11 05:07:50;;;;;;;26.48;4.80;;;9.40;99.90;;;;;;4988159;28;20432;-65
2023/12/11 05:10:17;;;;;;;23.95;4.60;;;9.20;99.90;;;;;;4987901;28;20057;-65
2023/12/11 05:12:43;;;;;;;22.08;4.20;;;9.40;99.90;;;;;;4988397;28;20047;-65
2023/12/11 05:15:10;;;;;;;22.17;4.38;;;9.50;99.90;;;;;;4988461;28;20065;-65
2023/12/11 05:17:36;;;;;;;18.20;4.60;;;9.40;99.90;;;;;;4988349;28;20057;-65
2023/12/11 05:20:02;;;;;;;23.67;4.85;;;9.40;99.90;;;;;;4988129;28;20050;-65
2023/12/11 05:22:29;;;;;;;20.08;4.05;;;9.30;99.90;;;;;;4987460;28;20046;-64
2023/12/11 05:24:55;;;;;;;24.35;4.72;;;9.50;99.90;;;;;;4988387;28;20057;-65
2023/12/11 05:27:21;;;;;;;23.25;4.40;;;9.40;99.90;;;;;;4972036;28;20145;-65
2023/12/11 05:29:48;;;;;;;19.85;5.00;;;9.30;99.90;;;;;;4988038;28;20398;-64
2023/12/11 05:32:14;;;;;;;29.42;4.40;;;9.10;99.90;;;;;;4988142;28;20658;-64
2023/12/11 05:34:41;;;;;;;25.70;4.25;;;9.10;99.90;;;;;;4988062;28;20072;-65
2023/12/11 05:37:07;;;;;;;24.83;6.00;;;9.10;99.90;;;;;;4987891;28;20046;-64
2023/12/11 05:39:33;;;;;;;24.90;4.78;;;9.20;99.90;;;;;;4987743;28;20401;-65
2023/12/11 05:42:00;;;;;;;17.15;3.75;;;9.10;99.90;;;;;;4987338;28;20069;-64
2023/12/11 05:44:26;;;;;;;22.83;5.00;;;9.30;99.90;;;;;;4988223;28;20085;-65
2023/12/11 05:46:52;;;;;;;22.85;4.05;;;9.30;99.90;;;;;;4987842;28;20458;-64
2023/12/11 05:49:18;;;;;;;23.83;3.97;;;9.40;99.90;;;;;;4987666;28;20050;-65
2023/12/11 05:51:45;;;;;;;18.98;3.95;;;9.40;99.90;;;;;;4987672;28;20046;-65
2023/12/11 05:54:11;;;;;;;23.90;4.05;;;9.30;99.90;;;;;;4987913;28;20046;-64
2023/12/11 05:56:37;;;;;;;23.20;3.78;;;9.10;99.90;;;;;;4988076;28;20058;-64
2023/12/11 05:59:04;;;;;;;21.90;4.45;;;9.20;99.90;;;;;;4987185;28;20054;-65
2023/12/11 06:01:30;;;;;;;24.45;4.00;;;9.40;99.90;;;;;;4987486;28;20054;-64
2023/12/11 06:03:57;;;;;;;22.63;3.95;;;9.30;99.90;;;;;;4988262;28;20046;-65
2023/12/11 06:06:23;;;;;;;23.60;5.45;;;9.30;99.90;;;;;;4987410;28;20386;-65
2023/12/11 06:08:50;;;;;;;22.25;4.45;;;9.30;99.90;;;;;;4987290;28;20050;-64
2023/12/11 06:11:16;;;;;;;25.55;5.38;;;9.10;99.90;;;;;;4987181;28;20057;-65
2023/12/11 06:13:43;;;;;;;21.42;4.95;;;9.40;99.90;;;;;;4987516;28;20054;-65
2023/12/11 06:16:10;;;;;;;19.83;5.30;;;9.30;99.90;;;;;;4987143;28;20058;-65
2023/12/11 06:18:39;;;;;;;23.98;5.35;;;9.20;99.90;;;;;;4986949;28;20058;-65
2023/12/11 06:21:05;;;;;;;23.33;4.25;;;9.20;99.90;;;;;;4986875;28;20054;-65
2023/12/11 06:23:32;;;;;;;20.15;4.30;;;9.30;99.90;;;;;;4987299;28;20137;-64
2023/12/11 06:25:58;;;;;;;20.63;3.90;;;9.10;99.90;;;;;;4987553;28;20356;-64
2023/12/11 06:28:24;;;;;;;21.52;3.90;;;9.30;99.90;;;;;;4987428;28;20050;-65
2023/12/11 06:30:51;;;;;;;22.17;4.22;;;9.20;99.90;;;;;;4986882;28;20367;-64
2023/12/11 06:33:17;;;;;;;22.15;4.63;;;9.40;99.90;;;;;;4987267;28;20046;-64
2023/12/11 06:35:44;;;;;;;25.45;4.82;;;9.20;99.90;;;;;;4987356;28;20042;-65
2023/12/11 06:38:10;;;;;;;20.90;3.88;;;9.30;99.90;;;;;;4988695;28;20352;-64
2023/12/11 06:40:36;;;;;;;21.13;3.97;;;9.20;99.90;;;;;;4987569;28;20061;-64
2023/12/11 06:43:02;;;;;;;18.45;4.00;;;9.40;99.90;;;;;;4970988;28;20081;-64
2023/12/11 06:45:29;;;;;;;21.45;4.05;;;9.50;99.90;;;;;;4986625;28;20046;-64
2023/12/11 06:47:55;;;;;;;19.45;4.15;;;9.30;99.90;;;;;;4987188;28;20054;-65
2023/12/11 06:50:21;;;;;;;17.92;3.65;;;9.50;99.90;;;;;;4986126;28;20054;-65
2023/12/11 06:52:48;;;;;;;19.42;3.35;;;9.40;99.90;;;;;;4987114;28;20046;-65
2023/12/11 06:55:14;;;;;;;17.85;4.38;;;9.20;99.90;;;;;;4986922;28;20050;-64
2023/12/11 06:57:40;;;;;;;14.63;3.40;;;9.20;99.90;;;;;;4987368;28;20458;-64
2023/12/11 07:00:09;;;;;;;15.85;3.53;;;9.40;99.90;;;;;;4985833;28;20069;-65
2023/12/11 07:02:35;;;;;;;18.75;3.20;;;9.10;99.90;;;;;;4986747;28;20058;-65
2023/12/11 07:05:02;;;;;;;13.45;3.28;;;9.30;99.90;;;;;;4987028;28;20399;-65
2023/12/11 07:07:28;;;;;;;20.02;4.70;;;9.30;99.90;;;;;;4986616;28;20069;-65
2023/12/11 07:09:57;;;;;;;16.05;3.85;;;9.20;99.90;;;;;;4986334;28;20053;-65
2023/12/11 07:12:23;;;;;;;18.27;3.40;;;9.10;99.90;;;;;;4970480;28;20063;-64
2023/12/11 07:14:49;;;;;;;15.40;3.75;;;9.30;99.90;;;;;;4986610;28;20381;-64
2023/12/11 07:17:17;;;;;;;14.98;3.30;;;9.20;99.90;;;;;;4986684;28;20046;-65
2023/12/11 07:19:43;;;;;;;16.15;3.47;;;9.30;99.90;;;;;;4986962;28;20073;-64
2023/12/11 07:22:09;;;;;;;13.98;3.28;;;9.10;99.90;;;;;;4986468;28;20371;-64
2023/12/11 07:24:36;;;;;;;16.80;3.78;;;9.30;99.90;;;;;;4986470;28;20073;-65
2023/12/11 07:27:02;;;;;;;12.85;3.00;;;8.90;99.90;;;;;;4986559;28;20046;-64
2023/12/11 07:29:28;;;;;;;16.48;4.00;;;8.90;99.90;;;;;;4988898;28;20047;-64
2023/12/11 07:31:54;;;;;;;16.38;3.60;;;9.20;99.90;;;;;;4973181;28;20155;-64
2023/12/11 07:34:22;;;;;;;15.05;2.70;;;8.90;99.90;;;;;;4990016;28;20047;-64
2023/12/11 07:36:51;;;;;;;16.58;2.90;;;9.20;99.90;;;;;;4989489;28;20043;-65
2023/12/11 07:39:17;;;;;;;13.27;2.90;;;9.20;99.90;;;;;;4970198;28;20055;-65
2023/12/11 07:41:44;;;;;;;10.27;3.05;;;8.90;99.90;;;;;;4969892;28;20059;-65
2023/12/11 07:44:10;;;;;;;11.60;2.90;;;9.00;99.90;;;;;;4970556;28;20055;-65
2023/12/11 07:46:36;;;;;;;12.10;2.80;;;9.20;99.90;;;;;;4970027;28;20051;-64
2023/12/11 07:49:03;;;;;;;13.70;3.50;;;9.00;99.90;;;;;;4974669;28;20058;-64
2023/12/11 07:51:29;;;;;;;12.90;3.15;;;9.00;99.90;;;;;;4988999;28;20054;-64
2023/12/11 07:53:58;;;;;;;12.32;3.15;;;9.00;99.90;;;;;;4973325;28;20470;-64
2023/12/11 07:56:25;;;;;;;9.90;2.53;;;8.90;99.90;;;;;;4989264;28;20050;-64
2023/12/11 07:58:52;;;;;;;6.60;2.80;;;8.90;99.90;;;;;;4989487;28;20436;-64
2023/12/11 08:01:19;;;;;;;8.85;2.70;;;9.20;99.90;;;;;;4989191;28;20474;-64
2023/12/11 08:03:46;;;;;;;9.10;2.90;;;9.20;99.90;;;;;;4989454;28;20061;-64
2023/12/11 08:06:12;;;;;;;10.15;2.28;;;9.00;99.90;;;;;;4989555;28;20058;-64
2023/12/11 08:08:45;;;;;;;11.68;2.53;;;9.20;99.90;;;;;;4973130;28;20046;-64
2023/12/11 08:11:22;;;;;;;7.10;1.90;;;9.20;99.90;;;;;;4989412;28;20133;-64
2023/12/11 08:13:48;;;;;;;9.18;2.50;;;9.10;99.90;;;;;;4989397;28;20058;-64
2023/12/11 08:16:16;;;;;;;9.38;2.80;;;8.90;99.90;;;;;;4989317;28;20046;-64
2023/12/11 08:18:47;;;;;;;7.88;2.10;;;9.00;99.90;;;;;;4989055;28;20129;-64
2023/12/11 08:21:14;;;;;;;11.00;2.75;;;9.20;99.90;;;;;;4989058;28;20050;-64
2023/12/11 08:23:43;;;;;;;9.55;2.45;;;8.90;99.90;;;;;;4989203;28;20057;-64
2023/12/11 08:26:19;;;;;;;9.90;2.83;;;9.20;99.90;;;;;;4989244;28;20394;-65
2023/12/11 08:28:47;;;;;;;12.35;2.83;;;8.90;99.90;;;;;;4988752;28;20050;-65
2023/12/11 08:31:14;;;;;;;12.55;3.08;;;8.80;99.90;;;;;;4988644;28;20050;-65
2023/12/11 08:33:40;;;;;;;14.45;2.85;;;9.20;99.90;;;;;;4989540;28;20046;-65
2023/12/11 08:36:07;;;;;;;11.15;3.53;;;9.10;99.90;;;;;;4988914;28;20069;-64
2023/12/11 08:38:33;;;;;;;17.63;4.60;;;9.10;99.90;;;;;;4988556;28;20060;-64
2023/12/11 08:41:00;;;;;;;10.77;3.53;;;8.80;99.90;;;;;;4972077;28;20065;-64
2023/12/11 08:43:26;;;;;;;12.80;3.33;;;9.20;99.90;;;;;;4972776;28;20046;-64
2023/12/11 08:45:52;;;;;;;14.90;3.35;;;9.10;99.90;;;;;;4988781;28;20058;-65
2023/12/11 08:48:19;;;;;;;17.65;4.97;;;9.00;99.90;;;;;;4988678;28;20053;-64
2023/12/11 08:50:47;;;;;;;16.92;3.97;;;8.80;99.90;;;;;;4988555;28;20070;-64
2023/12/11 08:53:14;;;;;;;15.07;3.40;;;8.80;99.90;;;;;;4989091;28;20042;-64
2023/12/11 08:55:40;;;;;;;11.98;2.97;;;9.10;99.90;;;;;;4989077;28;20161;-65
2023/12/11 08:58:06;;;;;;;18.67;3.60;;;9.00;99.90;;;;;;4988728;28;20093;-64
2023/12/11 09:00:33;;;;;;;15.10;3.60;;;9.00;99.90;;;;;;4987942;28;20058;-64
2023/12/11 09:02:59;;;;;;;21.95;4.20;;;9.20;99.90;;;;;;4988507;28;20069;-64
2023/12/11 09:05:26;;;;;;;14.55;2.97;;;8.90;99.90;;;;;;4988890;28;20054;-64
2023/12/11 09:07:52;;;;;;;21.25;3.70;;;9.20;99.90;;;;;;4972404;28;20062;-64
2023/12/11 09:10:19;;;;;;;18.25;3.83;;;8.90;99.90;;;;;;4968403;28;20390;-64
2023/12/11 09:12:45;;;;;;;15.35;3.45;;;9.10;99.90;;;;;;4952957;28;20050;-64
2023/12/11 09:15:11;;;;;;;11.73;2.72;;;8.90;99.90;;;;;;4953200;28;20292;-65
2023/12/11 09:17:38;;;;;;;14.45;3.38;;;9.20;99.90;;;;;;4953074;28;20050;-64
2023/12/11 09:20:08;;;;;;;9.27;2.72;;;8.90;99.90;;;;;;4980479;28;20054;-64
2023/12/11 09:22:35;;;;;;;14.20;2.50;;;9.20;99.90;;;;;;4987968;28;20065;-64
2023/12/11 09:25:01;;;;;;;19.90;3.20;;;9.00;99.90;;;;;;4972235;28;20058;-64
2023/12/11 09:27:27;;;;;;;12.23;2.53;;;9.10;99.90;;;;;;4972043;28;20049;-64
2023/12/11 09:29:54;;;;;;;12.60;3.85;;;9.10;99.90;;;;;;4971431;28;20126;-64
2023/12/11 09:32:20;;;;;;;11.82;3.40;;;8.90;99.90;;;;;;4988206;28;20061;-64
2023/12/11 09:34:46;;;;;;;9.05;2.20;;;9.30;99.90;;;;;;4988413;28;20054;-65
2023/12/11 09:37:15;;;;;;;14.50;2.78;;;9.20;99.90;;;;;;4988180;28;20043;-65
2023/12/11 09:39:42;;;;;;;18.05;2.85;;;9.10;99.90;;;;;;4971549;28;20046;-65
2023/12/11 09:42:09;;;;;;;16.73;3.13;;;9.30;99.90;;;;;;4988142;28;20137;-64
2023/12/11 09:44:35;;;;;;;10.50;3.17;;;9.30;99.90;;;;;;4972172;28;20063;-65
2023/12/11 09:47:09;;;;;;;20.67;3.08;;;9.00;99.90;;;;;;4971842;28;20054;-64
2023/12/11 09:49:35;;;;;;;14.07;2.40;;;9.10;99.90;;;;;;4987662;28;20046;-64
2023/12/11 09:52:02;;;;;;;17.50;3.47;;;9.40;99.90;;;;;;4986670;28;20053;-64
2023/12/11 09:54:29;;;;;;;15.30;2.70;;;9.40;99.90;;;;;;4987782;28;20042;-65
2023/12/11 09:56:57;;;;;;;16.40;3.33;;;9.20;99.90;;;;;;4987957;28;20043;-65
2023/12/11 09:59:25;;;;;;;13.55;3.10;;;9.40;99.90;;;;;;4987476;28;20050;-64
2023/12/11 10:01:52;;;;;;;9.93;2.40;;;9.40;99.90;;;;;;4987478;28;20042;-65
2023/12/11 10:04:18;;;;;;;14.35;3.65;;;9.10;99.90;;;;;;4987856;28;20058;-65
2023/12/11 10:06:44;;;;;;;17.25;3.17;;;9.30;99.90;;;;;;4971877;28;20050;-65
2023/12/11 10:09:35;;;;;;;19.20;4.35;;;9.10;99.90;;;;;;4987667;28;20126;-65
2023/12/11 10:12:03;;;;;;;15.48;2.92;;;8.90;99.90;;;;;;4971227;28;20054;-65
2023/12/11 10:14:30;;;;;;;15.32;3.10;;;8.90;99.90;;;;;;4987583;28;20069;-65
2023/12/11 10:16:57;;;;;;;12.93;2.47;;;8.90;99.90;;;;;;4987267;28;20054;-65
2023/12/11 10:19:34;;;;;;;13.40;2.90;;;8.90;99.90;;;;;;4971159;28;20054;-65
2023/12/11 10:22:00;;;;;;;11.40;2.88;;;8.90;99.90;;;;;;4971104;28;20050;-65
2023/12/11 10:24:29;;;;;;;13.63;3.67;;;9.20;99.90;;;;;;4987474;28;20058;-65
2023/12/11 10:26:56;;;;;;;15.75;3.72;;;9.20;99.90;;;;;;4971471;28;20050;-65
2023/12/11 10:29:30;;;;;;;15.73;2.67;;;8.90;99.90;;;;;;4970840;28;20050;-65
2023/12/11 10:32:02;;;;;;;14.48;3.65;;;9.00;99.90;;;;;;4970815;28;20046;-65
2023/12/11 10:34:50;;;;;;;17.13;3.75;;;8.80;99.90;;;;;;4987282;28;20435;-65
2023/12/11 10:37:17;;;;;;;14.00;3.10;;;8.70;99.90;;;;;;4987426;28;20050;-65
2023/12/11 10:39:54;;;;;;;15.73;2.78;;;9.00;99.90;;;;;;4970651;28;20050;-65
2023/12/11 10:42:20;;;;;;;15.77;2.65;;;8.80;99.90;;;;;;4971296;28;20050;-65
2023/12/11 10:44:47;;;;;;;14.80;2.90;;;9.20;99.90;;;;;;4987192;28;20050;-64
2023/12/11 10:47:14;;;;;;;17.65;3.72;;;9.20;99.90;;;;;;4987471;28;20050;-65
2023/12/11 10:49:41;;;;;;;11.95;2.42;;;9.30;99.90;;;;;;4986599;28;20581;-65
2023/12/11 10:52:08;;;;;;;7.95;2.22;;;9.00;99.90;;;;;;4987060;28;20144;-65
2023/12/11 10:54:38;;;;;;;14.90;3.03;;;9.10;99.90;;;;;;4987657;28;20498;-65
2023/12/11 10:57:11;;;;;;;16.15;4.18;;;9.30;99.90;;;;;;4986966;28;20538;-65
2023/12/11 10:59:38;;;;;;;13.40;3.53;;;9.20;99.90;;;;;;4986398;28;20058;-65
2023/12/11 11:02:06;;;;;;;15.02;3.17;;;9.20;99.90;;;;;;4987354;28;20336;-65
2023/12/11 11:04:37;;;;;;;17.70;3.95;;;9.20;99.90;;;;;;4990577;28;20050;-65
2023/12/11 11:07:19;;;;;;;21.70;3.80;;;9.20;99.90;;;;;;4990372;28;20068;-65
2023/12/11 11:10:09;;;;;;;19.05;3.70;;;9.40;99.90;;;;;;4989679;28;20046;-65
2023/12/11 11:12:56;;;;;;;20.70;3.85;;;9.00;99.90;;;;;;4990366;28;20501;-65
2023/12/11 11:15:23;;;;;;;22.02;4.22;;;9.20;99.90;;;;;;4990522;28;20054;-65
2023/12/11 11:18:02;;;;;;;19.05;3.45;;;9.20;99.90;;;;;;4990132;28;20052;-65
2023/12/11 11:20:33;;;;;;;15.45;3.42;;;9.10;99.90;;;;;;4989784;28;20061;-65
2023/12/11 11:23:18;;;;;;;24.48;4.57;;;9.10;99.90;;;;;;4990090;28;20172;-65
2023/12/11 11:25:51;;;;;;;12.77;3.70;;;9.30;99.90;;;;;;4990806;28;20073;-65
2023/12/11 11:28:44;;;;;;;12.85;3.42;;;9.00;99.90;;;;;;4990321;28;20568;-64
2023/12/11 11:31:11;;;;;;;16.42;3.70;;;9.10;99.90;;;;;;4973588;28;20080;-65
2023/12/11 11:33:52;;;;;;;11.85;3.05;;;9.10;99.90;;;;;;4990237;28;20066;-65
2023/12/11 11:36:21;;;;;;;10.65;2.72;;;9.20;99.90;;;;;;4989858;28;20051;-65
2023/12/11 11:38:54;;;;;;;11.48;2.63;;;9.10;99.90;;;;;;4989859;28;20057;-64
2023/12/11 11:41:22;;;;;;;12.15;2.55;;;9.20;99.90;;;;;;4954526;28;20066;-64
2023/12/11 11:44:07;;;;;;;10.15;2.67;;;9.20;99.90;;;;;;4970284;28;20047;-65
2023/12/11 11:46:55;;;;;;;9.88;2.00;;;9.40;99.90;;;;;;4970275;28;20145;-65
2023/12/11 11:49:28;;;;;;;8.27;2.03;;;9.50;99.90;;;;;;4956004;28;20050;-65
2023/12/11 11:51:55;;;;;;;10.35;2.53;;;9.50;99.90;;;;;;4970105;28;20050;-65
2023/12/11 11:54:25;;;;;;;11.02;2.58;;;9.40;99.90;;;;;;4970286;28;20481;-64
2023/12/11 11:56:52;;;;;;;11.70;2.63;;;9.30;99.90;;;;;;4970407;28;20282;-65
2023/12/11 11:59:19;;;;;;;8.93;1.63;;;9.30;99.90;;;;;;4974704;28;20386;-64
2023/12/11 12:01:55;;;;;;;7.10;1.92;;;9.40;99.90;;;;;;4989077;28;20398;-64
2023/12/11 12:04:33;;;;;;;6.35;1.70;;;9.50;99.90;;;;;;4989484;28;20057;-64
2023/12/11 12:07:04;;;;;;;9.65;2.17;;;9.20;99.90;;;;;;4989472;28;20062;-64
2023/12/11 12:09:31;;;;;;;8.93;1.65;;;9.40;99.90;;;;;;4988558;28;20053;-65
2023/12/11 12:11:58;;;;;;;8.60;1.65;;;9.30;99.90;;;;;;4989173;28;20073;-65
2023/12/11 12:14:25;;;;;;;7.38;1.88;;;9.00;99.90;;;;;;4972418;28;20053;-64
2023/12/11 12:16:52;;;;;;;10.30;1.63;;;9.10;99.90;;;;;;4989485;28;20064;-65
2023/12/11 12:19:34;;;;;;;4.57;1.33;;;8.90;99.90;;;;;;4988885;28;20398;-64
2023/12/11 12:22:02;;;;;;;7.45;1.98;;;9.00;99.90;;;;;;4988959;28;20069;-64
2023/12/11 12:24:29;;;;;;;6.90;1.70;;;8.90;99.90;;;;;;4989392;28;20055;-64
2023/12/11 12:27:02;;;;;;;5.40;1.30;;;8.80;99.90;;;;;;4989640;28;20129;-64
2023/12/11 12:29:30;;;;;;;3.45;1.10;;;8.80;99.90;;;;;;4988660;28;20419;-64
2023/12/11 12:32:00;;;;;;;5.43;1.30;;;9.00;99.90;;;;;;4989283;28;20054;-64
2023/12/11 12:34:29;;;;;;;5.13;2.03;;;9.00;99.90;;;;;;4972712;28;20478;-64
2023/12/11 12:36:57;;;;;;;8.57;2.75;;;9.00;99.90;;;;;;4988916;28;20050;-64
2023/12/11 12:39:24;;;;;;;7.40;1.85;;;9.00;99.90;;;;;;4988849;28;20050;-63
2023/12/11 12:41:50;;;;;;;4.82;1.30;;;9.10;99.90;;;;;;4989682;28;20050;-64
2023/12/11 12:44:20;;;;;;;5.30;1.35;;;8.90;99.90;;;;;;4972830;28;20053;-64
2023/12/11 12:46:47;;;;;;;7.40;1.45;;;8.90;99.90;;;;;;4988905;28;20058;-63
2023/12/11 12:49:15;;;;;;;5.18;1.27;;;9.20;99.90;;;;;;4972526;28;20060;-64
2023/12/11 12:51:50;;;;;;;4.90;1.38;;;9.20;99.90;;;;;;4988267;28;20046;-64